»·PEaware :: UAL113 KPSP-KSMF

UAL113 :: KPSP-KSMF

FLIGHT INFORMATION

Flight Status: Arrived
Operator:
United Airlines
More flights by this operator :: More flights under this callsign
Pilot: Trevor P. (20148)
Aircraft: AIRBUS A320
(A320)
More flights by this aircraft type
Origin: KPSP Palm Springs Intl
United States
Destination: KSMF Sacramento Intl
United States
More flights between these airports :: More routes between these airports
Route: +CATH1 PSP V386 PMD LANDO NURAY SUUTR2
File this flight plan on PilotEdge
Remarks:
Altitude:
(Current/Filed)
36,000ft
Speed:
(Current/Filed)
425kts
Departed: 13-May-19 04:33 PM
Arrived: 13-May-19 05:44 PM
Distance/Time
Traveled:
381nm/1:11
Distance/Time
To Go:
Arrived

Flight Plot

Page will automatically refresh every two minutes.


Map Options




Map Legend


Flown Route
Filed Route
Departure Airport
Arrival Airport
Navaid (VOR, NDB)
Fix

Horizontal Profiles

Position Reports

Time Latitude Longitude Heading Altitude Ground
Speed
13-May-19 16:11 33.823713 -116.506186 225 418ft 0kts
13-May-19 16:12 33.823713 -116.506186 225 418ft 0kts
13-May-19 16:13 33.823713 -116.506186 225 418ft 0kts
13-May-19 16:14 33.823713 -116.506186 225 418ft 0kts
13-May-19 16:15 33.823713 -116.506186 225 418ft 0kts
13-May-19 16:16 33.823713 -116.506186 225 418ft 0kts
13-May-19 16:16 33.823713 -116.506186 225 418ft 0kts
13-May-19 16:18 33.823713 -116.506186 225 418ft 0kts
13-May-19 16:19 33.823713 -116.506186 225 418ft 0kts
13-May-19 16:19 33.823713 -116.506186 225 418ft 0kts
13-May-19 16:21 33.823713 -116.506186 225 418ft 0kts
13-May-19 16:22 33.823713 -116.506186 225 418ft 0kts
13-May-19 16:22 33.823713 -116.506186 225 418ft 0kts
13-May-19 16:23 33.823713 -116.506186 225 418ft 0kts
13-May-19 16:25 33.823938 -116.505904 226 418ft 1kts
13-May-19 16:25 33.824352 -116.505840 145 419ft 0kts
13-May-19 16:26 33.824405 -116.505890 141 419ft 0kts
13-May-19 16:27 33.824405 -116.505890 141 419ft 0kts
13-May-19 16:28 33.823120 -116.504690 116 415ft 5kts
13-May-19 16:29 33.820222 -116.501273 143 408ft 21kts
13-May-19 16:30 33.818447 -116.499255 90 403ft 0kts
13-May-19 16:31 33.819589 -116.498686 324 404ft 17kts
13-May-19 16:32 33.847729 -116.523198 323 1449ft 190kts
13-May-19 16:33 33.892672 -116.561175 322 3854ft 217kts
13-May-19 16:34 33.953293 -116.604913 356 5624ft 285kts
13-May-19 16:35 34.000438 -116.541386 101 8382ft 295kts
13-May-19 16:36 33.940708 -116.477203 151 10767ft 317kts
13-May-19 16:37 33.853483 -116.427619 176 11822ft 373kts
13-May-19 16:38 33.773945 -116.496556 254 13685ft 391kts
13-May-19 16:39 33.808197 -116.618047 304 15558ft 404kts
13-May-19 16:40 33.873093 -116.730019 304 17363ft 413kts
13-May-19 16:41 33.939791 -116.845462 304 19066ft 421kts
13-May-19 16:42 34.007442 -116.962815 304 20684ft 427kts
13-May-19 16:43 34.075844 -117.081855 304 22136ft 433kts
13-May-19 16:44 34.144992 -117.202587 304 23462ft 438kts
13-May-19 16:45 34.214855 -117.324959 304 24640ft 444kts
13-May-19 16:46 34.285480 -117.449111 303 25743ft 450kts
13-May-19 16:47 34.356779 -117.574873 303 26731ft 455kts
13-May-19 16:48 34.428674 -117.702138 303 27630ft 460kts
13-May-19 16:49 34.501180 -117.830950 303 28418ft 464kts
13-May-19 16:50 34.573977 -117.960793 303 29442ft 460kts
13-May-19 16:51 34.648031 -118.087819 309 30409ft 458kts
13-May-19 16:52 34.730457 -118.206610 309 31274ft 456kts
13-May-19 16:53 34.812089 -118.324797 308 32081ft 455kts
13-May-19 16:54 34.893789 -118.443421 308 32820ft 454kts
13-May-19 16:55 34.974984 -118.561704 308 33507ft 453kts
13-May-19 16:56 35.073669 -118.654587 330 34101ft 458kts
13-May-19 16:57 35.187474 -118.725776 330 34710ft 457kts
13-May-19 16:58 35.300633 -118.796817 330 35274ft 456kts
13-May-19 16:59 35.413696 -118.868004 330 35791ft 455kts
13-May-19 17:00 35.526464 -118.939218 330 36018ft 454kts
13-May-19 17:01 35.639036 -119.010522 330 36011ft 455kts
13-May-19 17:02 35.751723 -119.082151 330 36008ft 455kts
13-May-19 17:03 35.864171 -119.153858 330 36010ft 455kts
13-May-19 17:04 35.977129 -119.226120 330 36016ft 456kts
13-May-19 17:05 36.085827 -119.305377 325 36012ft 455kts
13-May-19 17:06 36.193827 -119.388902 326 36015ft 455kts
13-May-19 17:07 36.301360 -119.472150 325 36016ft 455kts
13-May-19 17:08 36.409089 -119.555839 325 36014ft 456kts
13-May-19 17:09 36.516603 -119.639612 325 36015ft 456kts
13-May-19 17:10 36.624697 -119.724120 324 36014ft 452kts
13-May-19 17:11 36.731070 -119.807396 324 36014ft 450kts
13-May-19 17:12 36.837507 -119.891029 324 36016ft 451kts
13-May-19 17:13 36.944318 -119.975255 324 36016ft 452kts
13-May-19 17:14 37.051058 -120.059669 324 35332ft 451kts
13-May-19 17:15 37.157919 -120.144470 325 32473ft 458kts
13-May-19 17:16 37.266135 -120.230653 325 29407ft 465kts
13-May-19 17:17 37.375967 -120.318450 325 26630ft 440kts
13-May-19 17:18 37.473302 -120.397783 321 24316ft 397kts
13-May-19 17:19 37.555473 -120.479872 319 22180ft 367kts
13-May-19 17:20 37.628552 -120.553128 319 20848ft 356kts
13-May-19 17:21 37.706518 -120.631288 319 19515ft 356kts
13-May-19 17:22 37.784387 -120.709711 319 18732ft 358kts
13-May-19 17:23 37.862701 -120.788949 319 18205ft 358kts
13-May-19 17:24 37.940630 -120.867994 318 17680ft 357kts
13-May-19 17:25 38.017742 -120.946432 318 17147ft 357kts
13-May-19 17:26 38.091791 -121.029645 307 16204ft 350kts
13-May-19 17:27 38.154240 -121.121914 308 14605ft 336kts
13-May-19 17:28 38.211643 -121.206806 308 13983ft 296kts
13-May-19 17:29 38.269293 -121.280465 312 12674ft 289kts
13-May-19 17:30 38.325835 -121.352087 312 11330ft 283kts
13-May-19 17:31 38.381390 -121.422644 313 10020ft 277kts
13-May-19 17:32 38.435439 -121.491465 313 8757ft 271kts
13-May-19 17:33 38.489816 -121.556795 319 7502ft 267kts
13-May-19 17:34 38.547808 -121.615235 319 6316ft 260kts
13-May-19 17:35 38.603982 -121.672018 319 5206ft 253kts
13-May-19 17:36 38.673414 -121.689502 351 4195ft 250kts
13-May-19 17:37 38.740937 -121.693849 358 3623ft 238kts
13-May-19 17:38 38.791468 -121.652715 81 2837ft 245kts
13-May-19 17:39 38.799970 -121.568651 89 2060ft 216kts
13-May-19 17:40 38.764535 -121.560907 204 1140ft 158kts
13-May-19 17:41 38.728132 -121.579171 185 451ft 138kts
13-May-19 17:42 38.694408 -121.580281 182 29ft 52kts
13-May-19 17:43 38.691870 -121.584071 267 29ft 23kts
13-May-19 17:44 38.693927 -121.587056 270 30ft 0kts

Navigation Log

Ident Type
Flight plan parsing failed, navigation log unavailable